createdAt,value
2017-12-24T00:00:37.932Z,79.43
2017-12-24T00:03:06.269Z,79.61
2017-12-24T00:05:33.741Z,79.67
2017-12-24T00:08:02.418Z,79.56
2017-12-24T00:10:29.912Z,79.57
2017-12-24T00:12:57.420Z,79.54
2017-12-24T00:15:25.596Z,79.43
2017-12-24T00:17:53.058Z,79.31
2017-12-24T00:20:20.540Z,79.26
2017-12-24T00:28:33.052Z,79.13
2017-12-24T00:31:00.588Z,79.03
2017-12-24T00:33:28.036Z,79.05
2017-12-24T00:35:55.525Z,79.11
2017-12-24T00:38:22.997Z,79.02
2017-12-24T00:40:50.454Z,78.89
2017-12-24T00:43:17.926Z,78.81
2017-12-24T00:45:45.759Z,78.88
2017-12-24T00:48:13.222Z,78.66
2017-12-24T00:50:40.659Z,78.60
2017-12-24T00:53:08.134Z,78.47
2017-12-24T00:55:35.599Z,78.54
2017-12-24T00:58:03.088Z,78.41
2017-12-24T01:00:31.417Z,78.28
2017-12-24T01:02:59.773Z,78.05
2017-12-24T01:05:27.256Z,78.14
2017-12-24T01:07:54.735Z,78.16
2017-12-24T01:10:22.221Z,78.22
2017-12-24T01:12:49.675Z,78.01
2017-12-24T01:15:17.118Z,77.93
2017-12-24T01:17:45.186Z,77.80
2017-12-24T01:20:12.616Z,77.96
2017-12-24T01:22:45.196Z,77.78
2017-12-24T01:25:13.657Z,77.75
2017-12-24T01:27:41.234Z,77.82
2017-12-24T01:30:08.709Z,77.80
2017-12-24T01:32:36.185Z,77.92
2017-12-24T01:35:03.616Z,77.77
2017-12-24T01:37:31.069Z,77.77
2017-12-24T01:39:58.540Z,77.68
2017-12-24T01:42:26.433Z,77.63
2017-12-24T01:44:53.875Z,77.52
2017-12-24T01:47:21.399Z,77.67
2017-12-24T01:49:48.884Z,77.54
2017-12-24T01:52:16.354Z,77.53
2017-12-24T01:54:43.866Z,77.71
2017-12-24T01:57:11.354Z,77.75
2017-12-24T01:59:38.854Z,77.67
2017-12-24T02:02:06.936Z,77.72
2017-12-24T02:04:34.487Z,78.04
2017-12-24T02:07:02.060Z,78.05
2017-12-24T02:09:29.563Z,78.08
2017-12-24T02:11:57.105Z,78.22
2017-12-24T02:14:24.581Z,78.37
2017-12-24T02:16:52.105Z,78.25
2017-12-24T02:19:19.558Z,78.25
2017-12-24T02:21:47.048Z,78.21
2017-12-24T02:24:14.567Z,78.28
2017-12-24T02:26:42.052Z,78.27
2017-12-24T02:29:09.501Z,78.30
2017-12-24T02:31:36.929Z,78.36
2017-12-24T02:34:04.394Z,78.28
2017-12-24T02:36:31.864Z,78.05
2017-12-24T02:38:59.300Z,77.99
2017-12-24T02:41:26.732Z,78.10
2017-12-24T02:43:54.221Z,78.03
2017-12-24T02:46:21.672Z,78.04
2017-12-24T02:48:49.100Z,78.01
2017-12-24T02:51:16.532Z,78.09
2017-12-24T02:53:45.647Z,78.09
2017-12-24T02:56:13.141Z,78.00
2017-12-24T03:01:16.486Z,77.83
2017-12-24T03:03:43.915Z,77.71
2017-12-24T03:06:11.382Z,77.76
2017-12-24T03:08:39.663Z,77.69
2017-12-24T03:11:07.126Z,77.80
2017-12-24T03:13:34.702Z,77.74
2017-12-24T03:16:02.122Z,77.67
2017-12-24T03:18:29.866Z,77.60
2017-12-24T03:20:57.306Z,77.67
2017-12-24T03:23:24.739Z,77.77
2017-12-24T03:25:52.192Z,77.66
2017-12-24T03:28:19.686Z,77.64
2017-12-24T03:30:47.148Z,77.64
2017-12-24T03:33:14.638Z,77.55
2017-12-24T03:35:42.332Z,77.65
2017-12-24T03:38:09.761Z,77.69
2017-12-24T03:40:37.215Z,77.61
2017-12-24T03:43:05.351Z,77.70
2017-12-24T03:45:32.810Z,77.66
2017-12-24T03:48:00.503Z,77.67
2017-12-24T03:50:27.933Z,77.67
2017-12-24T03:52:55.381Z,77.77
2017-12-24T03:55:22.983Z,77.67
2017-12-24T03:57:50.423Z,77.78
2017-12-24T04:00:18.616Z,77.74
2017-12-24T04:02:47.439Z,77.81
2017-12-24T04:05:15.228Z,77.79
2017-12-24T04:07:42.659Z,77.72
2017-12-24T04:10:10.094Z,77.77
2017-12-24T04:12:37.556Z,77.74
2017-12-24T04:15:05.005Z,77.78
2017-12-24T04:17:32.701Z,77.82
2017-12-24T04:20:00.153Z,78.02
2017-12-24T04:22:27.661Z,77.88
2017-12-24T04:24:55.112Z,77.81
2017-12-24T04:27:22.548Z,77.96
2017-12-24T04:29:50.270Z,77.90
2017-12-24T04:32:17.808Z,77.91
2017-12-24T04:34:45.255Z,78.11
2017-12-24T04:37:12.701Z,78.26
2017-12-24T04:39:40.130Z,78.32
2017-12-24T04:42:07.591Z,78.36
2017-12-24T04:44:35.047Z,78.44
2017-12-24T04:47:02.736Z,78.38
2017-12-24T04:49:30.190Z,78.36
2017-12-24T04:51:57.714Z,78.47
2017-12-24T04:54:25.190Z,78.44
2017-12-24T04:56:52.635Z,78.45
2017-12-24T04:59:20.084Z,78.40
2017-12-24T05:01:52.583Z,78.27
2017-12-24T05:04:20.028Z,78.21
2017-12-24T05:06:47.498Z,78.23
2017-12-24T05:09:15.819Z,78.25
2017-12-24T05:11:43.264Z,78.37
2017-12-24T05:14:10.802Z,78.41
2017-12-24T05:16:38.239Z,78.34
2017-12-24T05:19:05.666Z,78.29
2017-12-24T05:21:33.132Z,78.40
2017-12-24T05:24:00.563Z,78.41
2017-12-24T05:26:28.021Z,78.40
2017-12-24T05:28:55.442Z,78.55
2017-12-24T05:31:22.933Z,78.47
2017-12-24T05:33:50.403Z,78.50
2017-12-24T05:36:17.835Z,78.50
2017-12-24T05:38:45.313Z,78.47
2017-12-24T05:41:12.741Z,78.50
2017-12-24T05:43:40.261Z,78.50
2017-12-24T05:46:08.712Z,78.54
2017-12-24T05:48:36.154Z,78.37
2017-12-24T05:51:03.652Z,78.38
2017-12-24T05:53:31.110Z,78.49
2017-12-24T05:55:58.568Z,78.51
2017-12-24T05:58:26.017Z,78.52
2017-12-24T06:00:53.511Z,78.53
2017-12-24T06:03:20.960Z,78.64
2017-12-24T06:05:48.408Z,78.57
2017-12-24T06:08:15.873Z,78.56
2017-12-24T06:10:43.318Z,78.64
2017-12-24T06:13:10.742Z,78.52
2017-12-24T06:15:38.475Z,78.49
2017-12-24T06:18:06.820Z,78.40
2017-12-24T06:20:34.270Z,78.39
2017-12-24T06:23:01.746Z,78.46
2017-12-24T06:25:29.210Z,78.52
2017-12-24T06:27:56.665Z,78.57
2017-12-24T06:30:24.192Z,78.57
2017-12-24T06:32:51.918Z,78.53
2017-12-24T06:35:19.351Z,78.47
2017-12-24T06:37:46.801Z,78.54
2017-12-24T06:40:14.744Z,78.55
2017-12-24T06:42:42.269Z,78.49
2017-12-24T06:45:10.462Z,78.40
2017-12-24T06:47:37.903Z,78.36
2017-12-24T06:50:05.622Z,78.24
2017-12-24T06:52:33.059Z,78.27
2017-12-24T06:55:00.515Z,78.40
2017-12-24T06:57:27.995Z,78.44
2017-12-24T06:59:55.432Z,78.52
2017-12-24T07:02:23.158Z,78.47
2017-12-24T07:04:50.626Z,78.54
2017-12-24T07:07:18.083Z,78.55
2017-12-24T07:09:45.567Z,78.51
2017-12-24T07:12:13.023Z,78.44
2017-12-24T07:14:40.463Z,78.60
2017-12-24T07:17:07.896Z,78.58
2017-12-24T07:19:35.579Z,78.44
2017-12-24T07:22:03.027Z,78.49
2017-12-24T07:24:30.463Z,78.44
2017-12-24T07:26:57.913Z,78.56
2017-12-24T07:29:25.344Z,78.53
2017-12-24T07:31:53.155Z,78.58
2017-12-24T07:34:20.602Z,78.63
2017-12-24T07:36:48.036Z,78.57
2017-12-24T07:39:15.470Z,78.41
2017-12-24T07:41:43.842Z,78.56
2017-12-24T07:44:11.278Z,78.61
2017-12-24T07:46:39.348Z,78.54
2017-12-24T07:49:07.700Z,78.43
2017-12-24T07:51:35.364Z,78.37
2017-12-24T07:54:03.790Z,78.37
2017-12-24T07:56:34.276Z,78.25
2017-12-24T07:59:01.720Z,78.33
2017-12-24T08:01:29.200Z,78.52
2017-12-24T08:03:57.689Z,78.38
2017-12-24T08:06:25.131Z,78.35
2017-12-24T08:08:53.117Z,78.29
2017-12-24T08:11:20.581Z,78.25
2017-12-24T08:13:48.129Z,78.39
2017-12-24T08:16:15.640Z,78.45
2017-12-24T08:18:43.172Z,78.48
2017-12-24T08:21:10.906Z,78.42
2017-12-24T08:23:38.352Z,78.33
2017-12-24T08:26:05.819Z,78.48
2017-12-24T08:28:33.293Z,78.44
2017-12-24T08:31:00.774Z,78.56
2017-12-24T08:33:28.271Z,78.56
2017-12-24T08:35:55.990Z,78.45
2017-12-24T08:38:23.439Z,78.42
2017-12-24T08:40:50.869Z,78.52
2017-12-24T08:43:18.351Z,78.69
2017-12-24T08:45:45.805Z,78.52
2017-12-24T08:48:15.353Z,78.53
2017-12-24T08:50:42.860Z,78.49
2017-12-24T08:53:10.308Z,78.50
2017-12-24T08:55:37.800Z,78.47
2017-12-24T08:58:05.234Z,78.50
2017-12-24T09:00:32.710Z,78.48
2017-12-24T09:03:00.185Z,78.45
2017-12-24T09:05:28.009Z,78.37
2017-12-24T09:07:55.509Z,79.02
2017-12-24T09:10:23.013Z,77.96
2017-12-24T09:12:50.593Z,78.05
2017-12-24T09:15:18.080Z,78.03
2017-12-24T09:17:46.280Z,78.03
2017-12-24T09:20:13.956Z,78.14
2017-12-24T09:22:41.572Z,78.42
2017-12-24T09:25:09.074Z,78.19
2017-12-24T09:27:36.527Z,78.06
2017-12-24T09:30:05.864Z,78.14
2017-12-24T09:32:33.347Z,78.22
2017-12-24T09:35:00.925Z,78.16
2017-12-24T09:37:28.430Z,78.18
2017-12-24T09:39:58.231Z,78.03
2017-12-24T09:42:27.941Z,78.03
2017-12-24T09:44:56.212Z,78.14
2017-12-24T09:47:23.961Z,77.94
2017-12-24T09:49:51.402Z,77.91
2017-12-24T09:52:18.856Z,77.86
2017-12-24T09:54:46.323Z,77.72
2017-12-24T09:57:13.803Z,77.75
2017-12-24T09:59:41.282Z,77.84
2017-12-24T10:02:08.798Z,77.97
2017-12-24T10:10:16.628Z,77.81
2017-12-24T10:12:44.189Z,77.71
2017-12-24T10:15:11.649Z,77.52
2017-12-24T10:17:39.111Z,77.42
2017-12-24T10:20:06.632Z,77.29
2017-12-24T10:22:34.092Z,77.28
2017-12-24T10:25:01.619Z,77.41
2017-12-24T10:27:29.071Z,77.42
2017-12-24T10:29:56.529Z,77.36
2017-12-24T10:32:23.972Z,77.38
2017-12-24T10:34:51.445Z,77.41
2017-12-24T10:37:18.955Z,77.16
2017-12-24T10:39:46.433Z,77.26
2017-12-24T10:42:13.921Z,77.35
2017-12-24T10:44:41.395Z,77.32
2017-12-24T10:47:08.815Z,77.31
2017-12-24T10:49:36.860Z,77.07
2017-12-24T10:52:04.350Z,77.06
2017-12-24T10:54:31.843Z,77.14
2017-12-24T10:56:59.309Z,76.98
2017-12-24T10:59:26.752Z,76.99
2017-12-24T11:01:54.315Z,76.93
2017-12-24T11:04:21.845Z,77.01
2017-12-24T11:06:49.350Z,76.78
2017-12-24T11:09:16.842Z,76.52
2017-12-24T11:11:45.386Z,76.68
2017-12-24T11:14:12.882Z,76.56
2017-12-24T11:16:40.379Z,76.64
2017-12-24T11:19:07.832Z,76.54
2017-12-24T11:21:40.344Z,76.68
2017-12-24T11:24:08.055Z,76.79
2017-12-24T11:26:35.504Z,76.55
2017-12-24T11:29:03.005Z,76.56
2017-12-24T11:31:30.516Z,76.72
2017-12-24T11:33:59.984Z,76.73
2017-12-24T11:36:27.513Z,76.89
2017-12-24T11:38:55.618Z,76.93
2017-12-24T11:41:28.233Z,76.84
2017-12-24T11:43:55.722Z,76.94
2017-12-24T11:46:23.244Z,76.84
2017-12-24T11:48:51.618Z,76.94
2017-12-24T11:51:19.697Z,76.96
2017-12-24T11:53:47.286Z,76.90
2017-12-24T11:56:14.756Z,76.96
2017-12-24T11:58:42.282Z,77.09
2017-12-24T12:01:09.795Z,77.13
2017-12-24T12:03:37.445Z,77.17
2017-12-24T12:06:05.204Z,77.07
2017-12-24T12:08:32.730Z,77.23
2017-12-24T12:11:00.287Z,77.40
2017-12-24T12:13:28.433Z,77.25
2017-12-24T12:15:55.900Z,77.25
2017-12-24T12:18:24.264Z,77.23
2017-12-24T12:20:51.773Z,77.05
2017-12-24T12:23:19.663Z,77.25
2017-12-24T12:25:47.134Z,77.33
2017-12-24T12:28:14.731Z,77.38
2017-12-24T12:30:42.237Z,77.24
2017-12-24T12:33:14.872Z,77.11
2017-12-24T12:35:42.516Z,77.16
2017-12-24T12:38:10.027Z,77.31
2017-12-24T12:40:37.584Z,77.40
2017-12-24T12:43:05.109Z,77.34
2017-12-24T12:45:32.599Z,77.13
2017-12-24T12:48:00.329Z,77.06
2017-12-24T12:50:28.653Z,76.97
2017-12-24T12:52:56.157Z,76.87
2017-12-24T12:55:23.851Z,76.86
2017-12-24T12:57:51.411Z,76.71
2017-12-24T13:00:18.905Z,76.51
2017-12-24T13:02:46.506Z,76.47
2017-12-24T13:05:14.159Z,76.62
2017-12-24T13:07:41.690Z,76.63
2017-12-24T13:10:09.411Z,76.55
2017-12-24T13:12:37.153Z,76.59
2017-12-24T13:15:04.681Z,76.53
2017-12-24T13:17:32.140Z,76.31
2017-12-24T13:19:59.740Z,76.19
2017-12-24T13:22:27.864Z,76.37
2017-12-24T13:24:55.593Z,76.44
2017-12-24T13:27:23.087Z,76.13
2017-12-24T13:29:51.300Z,76.13
2017-12-24T13:32:18.972Z,75.95
2017-12-24T13:34:46.472Z,75.89
2017-12-24T13:37:13.981Z,75.85
2017-12-24T13:39:41.408Z,76.03
2017-12-24T13:42:08.990Z,75.93
2017-12-24T13:44:36.477Z,75.71
2017-12-24T13:47:04.053Z,75.76
2017-12-24T13:49:31.445Z,75.67
2017-12-24T13:51:58.894Z,75.65
2017-12-24T13:54:26.370Z,75.39
2017-12-24T13:56:53.872Z,75.47
2017-12-24T13:59:22.627Z,75.51
2017-12-24T14:01:51.920Z,75.49
2017-12-24T14:04:19.421Z,75.55
2017-12-24T14:06:46.901Z,75.43
2017-12-24T14:09:14.372Z,75.45
2017-12-24T14:11:41.872Z,75.65
2017-12-24T14:14:09.393Z,75.51
2017-12-24T14:16:36.840Z,75.30
2017-12-24T14:19:04.317Z,75.34
2017-12-24T14:21:31.799Z,75.36
2017-12-24T14:23:59.374Z,75.37
2017-12-24T14:26:26.839Z,75.28
2017-12-24T14:28:54.302Z,75.37
2017-12-24T14:31:21.740Z,75.34
2017-12-24T14:33:49.198Z,75.35
2017-12-24T14:36:16.736Z,75.24
2017-12-24T14:38:44.299Z,75.27
2017-12-24T14:41:11.824Z,75.27
2017-12-24T14:43:39.469Z,75.32
2017-12-24T14:46:06.970Z,75.39
2017-12-24T14:48:34.415Z,75.35
2017-12-24T14:51:01.878Z,75.14
2017-12-24T14:53:29.378Z,75.22
2017-12-24T14:55:56.801Z,75.05
2017-12-24T14:58:24.295Z,75.11
2017-12-24T15:00:51.826Z,74.95
2017-12-24T15:03:19.295Z,75.05
2017-12-24T15:05:46.845Z,75.03
2017-12-24T15:08:14.340Z,75.13
2017-12-24T15:10:41.760Z,75.30
2017-12-24T15:13:28.455Z,75.45
2017-12-24T15:15:55.868Z,75.01
2017-12-24T15:18:23.326Z,74.87
2017-12-24T15:20:50.773Z,74.77
2017-12-24T15:23:18.896Z,74.88
2017-12-24T15:25:46.448Z,74.91
2017-12-24T15:28:13.945Z,74.78
2017-12-24T15:30:41.404Z,74.59
2017-12-24T15:33:09.180Z,74.71
2017-12-24T15:35:36.646Z,74.60
2017-12-24T15:38:04.105Z,74.54
2017-12-24T15:40:31.556Z,74.58
2017-12-24T15:42:59.060Z,74.80
2017-12-24T15:45:26.589Z,74.60
2017-12-24T15:47:54.043Z,74.58
2017-12-24T15:50:21.487Z,74.45
2017-12-24T15:52:48.965Z,74.40
2017-12-24T15:55:16.400Z,74.44
2017-12-24T15:57:43.903Z,74.50
2017-12-24T16:00:12.113Z,74.59
2017-12-24T16:02:39.563Z,74.66
2017-12-24T16:05:07.087Z,74.47
2017-12-24T16:07:34.551Z,74.63
2017-12-24T16:10:02.030Z,74.69
2017-12-24T16:12:29.499Z,74.84
2017-12-24T16:14:56.932Z,74.92
2017-12-24T16:17:24.416Z,75.06
2017-12-24T16:19:51.929Z,74.93
2017-12-24T16:22:19.404Z,74.93
2017-12-24T16:24:46.880Z,75.05
2017-12-24T16:27:14.329Z,75.06
2017-12-24T16:29:41.818Z,75.24
2017-12-24T16:32:09.437Z,75.34
2017-12-24T16:34:36.927Z,75.32
2017-12-24T16:37:04.373Z,75.35
2017-12-24T16:39:31.847Z,75.32
2017-12-24T16:41:59.377Z,75.46
2017-12-24T16:44:26.878Z,75.47
2017-12-24T16:46:54.333Z,75.48
2017-12-24T16:49:21.832Z,75.44
2017-12-24T16:51:49.321Z,75.46
2017-12-24T16:54:16.772Z,75.47
2017-12-24T16:56:44.223Z,75.68
2017-12-24T16:59:11.656Z,75.65
2017-12-24T17:01:39.193Z,75.73
2017-12-24T17:04:06.662Z,75.66
2017-12-24T17:06:34.136Z,75.63
2017-12-24T17:09:01.572Z,75.72
2017-12-24T17:11:29.072Z,75.68
2017-12-24T17:13:56.524Z,75.67
2017-12-24T17:16:24.071Z,75.68
2017-12-24T17:18:51.552Z,75.74
2017-12-24T17:21:19.909Z,75.62
2017-12-24T17:23:47.513Z,75.58
2017-12-24T17:26:14.968Z,75.64
2017-12-24T17:28:42.917Z,75.41
2017-12-24T17:31:10.372Z,75.31
2017-12-24T17:33:43.646Z,75.30
2017-12-24T17:36:11.219Z,75.34
2017-12-24T17:38:38.773Z,75.28
2017-12-24T17:41:06.317Z,75.34
2017-12-24T17:43:34.429Z,75.31
2017-12-24T17:46:01.936Z,75.25
2017-12-24T17:48:29.521Z,75.31
2017-12-24T17:50:57.172Z,75.39
2017-12-24T17:53:25.426Z,75.17
2017-12-24T17:55:53.861Z,75.32
2017-12-24T17:58:21.384Z,75.13
2017-12-24T18:00:50.697Z,75.18
2017-12-24T18:03:18.218Z,75.26
2017-12-24T18:05:45.686Z,75.27
2017-12-24T18:08:14.586Z,75.33
2017-12-24T18:10:42.296Z,75.47
2017-12-24T18:13:09.813Z,75.21
2017-12-24T18:15:37.589Z,75.37
2017-12-24T18:18:05.249Z,75.33
2017-12-24T18:20:33.697Z,75.29
2017-12-24T18:23:01.209Z,75.42
2017-12-24T18:25:28.699Z,75.36
2017-12-24T18:27:58.438Z,75.38
2017-12-24T18:30:25.950Z,75.24
2017-12-24T18:32:53.464Z,75.12
2017-12-24T18:35:21.687Z,75.21
2017-12-24T18:37:49.164Z,75.38
2017-12-24T18:40:16.630Z,75.34
2017-12-24T18:42:49.747Z,75.15
2017-12-24T18:45:17.209Z,75.10
2017-12-24T18:47:45.661Z,75.12
2017-12-24T18:50:13.150Z,75.15
2017-12-24T18:52:45.718Z,75.10
2017-12-24T18:55:13.176Z,74.79
2017-12-24T18:57:40.727Z,74.78
2017-12-24T19:00:08.258Z,74.94
2017-12-24T19:02:35.727Z,74.83
2017-12-24T19:05:03.209Z,74.78
2017-12-24T19:07:30.866Z,74.65
2017-12-24T19:09:58.488Z,74.65
2017-12-24T19:12:26.080Z,74.78
2017-12-24T19:14:53.801Z,74.66
2017-12-24T19:17:21.292Z,74.49
2017-12-24T19:19:48.791Z,74.52
2017-12-24T19:22:16.282Z,74.43
2017-12-24T19:24:43.751Z,74.66
2017-12-24T19:27:11.491Z,74.87
2017-12-24T19:29:38.933Z,74.79
2017-12-24T19:32:06.404Z,74.77
2017-12-24T19:34:33.874Z,74.77
2017-12-24T19:37:01.335Z,74.73
2017-12-24T19:39:28.906Z,74.77
2017-12-24T19:41:56.441Z,74.60
2017-12-24T19:44:23.930Z,74.78
2017-12-24T19:46:51.388Z,74.84
2017-12-24T19:49:18.896Z,74.83
2017-12-24T19:51:46.342Z,74.61
2017-12-24T19:54:13.906Z,74.68
2017-12-24T19:56:41.396Z,74.64
2017-12-24T19:59:09.605Z,74.64
2017-12-24T20:01:42.089Z,74.79
2017-12-24T20:04:09.545Z,74.86
2017-12-24T20:06:37.034Z,74.82
2017-12-24T20:09:04.517Z,74.78
2017-12-24T20:11:31.985Z,74.68
2017-12-24T20:13:59.489Z,74.46
2017-12-24T20:16:26.962Z,74.59
2017-12-24T20:18:54.427Z,74.70
2017-12-24T20:21:21.861Z,74.57
2017-12-24T20:23:49.379Z,74.63
2017-12-24T20:26:16.827Z,74.51
2017-12-24T20:28:45.756Z,74.59
2017-12-24T20:31:13.224Z,74.43
2017-12-24T20:33:41.036Z,74.48
2017-12-24T20:36:08.452Z,74.57
2017-12-24T20:38:35.935Z,74.59
2017-12-24T20:41:03.386Z,74.19
2017-12-24T20:43:30.872Z,74.12
2017-12-24T20:45:58.331Z,74.28
2017-12-24T20:48:25.818Z,74.24
2017-12-24T20:50:53.323Z,74.09
2017-12-24T20:53:20.805Z,74.00
2017-12-24T20:55:48.409Z,74.11
2017-12-24T20:58:15.865Z,74.01
2017-12-24T21:00:43.342Z,74.02
2017-12-24T21:03:10.776Z,74.00
2017-12-24T21:05:38.215Z,74.03
2017-12-24T21:08:05.673Z,74.07
2017-12-24T21:10:33.151Z,73.92
2017-12-24T21:13:00.677Z,73.87
2017-12-24T21:15:28.120Z,73.90
2017-12-24T21:17:55.630Z,73.94
2017-12-24T21:20:23.149Z,74.08
2017-12-24T21:22:50.661Z,74.00
2017-12-24T21:25:18.108Z,73.73
2017-12-24T21:27:45.612Z,73.82
2017-12-24T21:30:13.168Z,73.96
2017-12-24T21:32:40.617Z,74.07
2017-12-24T21:35:08.068Z,73.92
2017-12-24T21:37:35.512Z,73.89
2017-12-24T21:40:02.993Z,74.01
2017-12-24T21:42:30.449Z,73.80
2017-12-24T21:44:57.892Z,73.86
2017-12-24T21:47:25.361Z,73.91
2017-12-24T21:49:52.878Z,73.88
2017-12-24T21:52:20.373Z,73.96
2017-12-24T21:54:47.900Z,74.21
2017-12-24T21:57:15.361Z,74.22
2017-12-24T21:59:42.851Z,74.38
2017-12-24T22:02:10.329Z,74.37
2017-12-24T22:04:37.783Z,74.19
2017-12-24T22:07:05.329Z,74.30
2017-12-24T22:09:32.777Z,74.26
2017-12-24T22:12:00.314Z,74.23
2017-12-24T22:14:27.810Z,74.24
2017-12-24T22:16:55.252Z,74.30
2017-12-24T22:19:22.776Z,74.24
2017-12-24T22:21:50.317Z,74.08
2017-12-24T22:24:17.813Z,74.07
2017-12-24T22:26:45.265Z,74.04
2017-12-24T22:29:13.428Z,74.02
2017-12-24T22:31:46.972Z,73.89
2017-12-24T22:34:14.469Z,73.80
2017-12-24T22:36:41.927Z,73.98
2017-12-24T22:39:09.358Z,74.12
2017-12-24T22:41:36.872Z,74.10
2017-12-24T22:44:04.330Z,74.02
2017-12-24T22:46:31.776Z,74.10
2017-12-24T22:48:59.284Z,74.12
2017-12-24T22:51:26.782Z,74.12
2017-12-24T22:53:54.247Z,73.97
2017-12-24T22:56:21.689Z,73.87
2017-12-24T22:58:50.026Z,73.75
2017-12-24T23:01:17.523Z,73.64
2017-12-24T23:03:44.972Z,73.62
2017-12-24T23:06:12.471Z,73.50
2017-12-24T23:08:39.925Z,73.63
2017-12-24T23:11:08.240Z,73.75
2017-12-24T23:13:35.691Z,73.81
2017-12-24T23:16:03.151Z,73.76
2017-12-24T23:18:30.640Z,73.84
2017-12-24T23:20:58.116Z,73.97
2017-12-24T23:23:25.628Z,73.94
2017-12-24T23:25:53.113Z,74.01
2017-12-24T23:28:20.915Z,73.90
2017-12-24T23:30:48.461Z,73.98
2017-12-24T23:33:15.913Z,73.94
2017-12-24T23:35:43.393Z,73.78
2017-12-24T23:38:10.877Z,73.78
2017-12-24T23:40:38.312Z,73.97
2017-12-24T23:43:05.748Z,74.00
2017-12-24T23:45:33.213Z,73.93
2017-12-24T23:48:00.668Z,73.88
2017-12-24T23:50:28.113Z,73.87
2017-12-24T23:52:55.576Z,73.72
2017-12-24T23:55:23.042Z,73.72
2017-12-24T23:57:50.732Z,73.74
